sensor_id;sensor_type;location;lat;lon;timestamp;P1;durP1;ratioP1;P2;durP2;ratioP2
19854;SDS011;10088;47.946;2.532;2023-05-27T00:01:17;21.40;;;11.03;;
19854;SDS011;10088;47.946;2.532;2023-05-27T00:03:42;17.33;;;11.43;;
19854;SDS011;10088;47.946;2.532;2023-05-27T00:06:08;21.43;;;11.23;;
19854;SDS011;10088;47.946;2.532;2023-05-27T00:08:33;20.27;;;12.30;;
19854;SDS011;10088;47.946;2.532;2023-05-27T00:10:58;20.23;;;11.60;;
19854;SDS011;10088;47.946;2.532;2023-05-27T00:13:23;22.70;;;11.53;;
19854;SDS011;10088;47.946;2.532;2023-05-27T00:15:49;18.60;;;11.40;;
19854;SDS011;10088;47.946;2.532;2023-05-27T00:18:14;20.67;;;11.60;;
19854;SDS011;10088;47.946;2.532;2023-05-27T00:20:40;22.00;;;11.77;;
19854;SDS011;10088;47.946;2.532;2023-05-27T00:23:06;17.43;;;11.77;;
19854;SDS011;10088;47.946;2.532;2023-05-27T00:25:31;18.20;;;11.07;;
19854;SDS011;10088;47.946;2.532;2023-05-27T00:27:57;24.80;;;12.57;;
19854;SDS011;10088;47.946;2.532;2023-05-27T00:30:22;21.37;;;12.80;;
19854;SDS011;10088;47.946;2.532;2023-05-27T00:32:47;22.10;;;12.90;;
19854;SDS011;10088;47.946;2.532;2023-05-27T00:35:12;21.03;;;12.80;;
19854;SDS011;10088;47.946;2.532;2023-05-27T00:37:38;22.40;;;12.80;;
19854;SDS011;10088;47.946;2.532;2023-05-27T00:40:03;27.27;;;13.93;;
19854;SDS011;10088;47.946;2.532;2023-05-27T00:42:30;22.33;;;12.67;;
19854;SDS011;10088;47.946;2.532;2023-05-27T00:44:55;21.90;;;13.37;;
19854;SDS011;10088;47.946;2.532;2023-05-27T00:47:20;21.30;;;13.07;;
19854;SDS011;10088;47.946;2.532;2023-05-27T00:49:46;20.07;;;12.67;;
19854;SDS011;10088;47.946;2.532;2023-05-27T00:52:11;21.67;;;12.60;;
19854;SDS011;10088;47.946;2.532;2023-05-27T00:54:38;20.23;;;12.43;;
19854;SDS011;10088;47.946;2.532;2023-05-27T00:57:03;23.70;;;14.93;;
19854;SDS011;10088;47.946;2.532;2023-05-27T00:59:30;21.03;;;13.57;;
19854;SDS011;10088;47.946;2.532;2023-05-27T01:01:55;29.13;;;14.17;;
19854;SDS011;10088;47.946;2.532;2023-05-27T01:04:20;25.83;;;14.70;;
19854;SDS011;10088;47.946;2.532;2023-05-27T01:09:42;26.27;;;15.77;;
19854;SDS011;10088;47.946;2.532;2023-05-27T01:12:18;25.93;;;14.27;;
19854;SDS011;10088;47.946;2.532;2023-05-27T01:14:49;21.07;;;13.20;;
19854;SDS011;10088;47.946;2.532;2023-05-27T01:17:15;24.63;;;14.80;;
19854;SDS011;10088;47.946;2.532;2023-05-27T01:19:44;23.43;;;14.10;;
19854;SDS011;10088;47.946;2.532;2023-05-27T01:22:12;27.43;;;14.30;;
19854;SDS011;10088;47.946;2.532;2023-05-27T01:24:41;24.00;;;14.90;;
19854;SDS011;10088;47.946;2.532;2023-05-27T01:27:07;26.20;;;15.17;;
19854;SDS011;10088;47.946;2.532;2023-05-27T01:29:33;22.17;;;14.17;;
19854;SDS011;10088;47.946;2.532;2023-05-27T01:34:42;30.13;;;15.50;;
19854;SDS011;10088;47.946;2.532;2023-05-27T01:37:09;22.83;;;15.27;;
19854;SDS011;10088;47.946;2.532;2023-05-27T01:39:37;24.37;;;15.30;;
19854;SDS011;10088;47.946;2.532;2023-05-27T01:42:02;24.60;;;14.23;;
19854;SDS011;10088;47.946;2.532;2023-05-27T01:44:28;22.70;;;14.53;;
19854;SDS011;10088;47.946;2.532;2023-05-27T01:46:57;23.70;;;14.20;;
19854;SDS011;10088;47.946;2.532;2023-05-27T01:49:23;28.57;;;15.77;;
19854;SDS011;10088;47.946;2.532;2023-05-27T01:51:48;28.47;;;15.37;;
19854;SDS011;10088;47.946;2.532;2023-05-27T01:54:13;26.50;;;15.50;;
19854;SDS011;10088;47.946;2.532;2023-05-27T01:56:38;21.77;;;14.70;;
19854;SDS011;10088;47.946;2.532;2023-05-27T01:59:04;33.10;;;15.73;;
19854;SDS011;10088;47.946;2.532;2023-05-27T02:01:29;28.67;;;16.13;;
19854;SDS011;10088;47.946;2.532;2023-05-27T02:03:55;27.07;;;14.47;;
19854;SDS011;10088;47.946;2.532;2023-05-27T02:06:21;22.80;;;14.87;;
19854;SDS011;10088;47.946;2.532;2023-05-27T02:08:46;27.20;;;15.57;;
19854;SDS011;10088;47.946;2.532;2023-05-27T02:11:11;25.67;;;14.40;;
19854;SDS011;10088;47.946;2.532;2023-05-27T02:13:37;27.47;;;15.10;;
19854;SDS011;10088;47.946;2.532;2023-05-27T02:16:02;30.23;;;15.77;;
19854;SDS011;10088;47.946;2.532;2023-05-27T02:18:27;29.30;;;16.97;;
19854;SDS011;10088;47.946;2.532;2023-05-27T02:20:52;27.23;;;16.03;;
19854;SDS011;10088;47.946;2.532;2023-05-27T02:23:18;25.57;;;15.40;;
19854;SDS011;10088;47.946;2.532;2023-05-27T02:25:43;22.90;;;15.80;;
19854;SDS011;10088;47.946;2.532;2023-05-27T02:28:08;32.70;;;16.00;;
19854;SDS011;10088;47.946;2.532;2023-05-27T02:30:33;27.87;;;16.17;;
19854;SDS011;10088;47.946;2.532;2023-05-27T02:32:59;35.03;;;16.53;;
19854;SDS011;10088;47.946;2.532;2023-05-27T02:35:24;25.73;;;16.23;;
19854;SDS011;10088;47.946;2.532;2023-05-27T02:37:50;28.73;;;16.37;;
19854;SDS011;10088;47.946;2.532;2023-05-27T02:40:28;20.63;;;15.67;;
19854;SDS011;10088;47.946;2.532;2023-05-27T02:42:53;26.27;;;15.10;;
19854;SDS011;10088;47.946;2.532;2023-05-27T02:45:19;24.33;;;16.07;;
19854;SDS011;10088;47.946;2.532;2023-05-27T02:47:44;28.17;;;16.17;;
19854;SDS011;10088;47.946;2.532;2023-05-27T02:50:09;21.37;;;14.63;;
19854;SDS011;10088;47.946;2.532;2023-05-27T02:52:35;25.90;;;15.20;;
19854;SDS011;10088;47.946;2.532;2023-05-27T02:55:00;25.50;;;14.70;;
19854;SDS011;10088;47.946;2.532;2023-05-27T02:57:25;29.00;;;16.43;;
19854;SDS011;10088;47.946;2.532;2023-05-27T02:59:50;23.60;;;14.67;;
19854;SDS011;10088;47.946;2.532;2023-05-27T03:02:16;26.53;;;15.40;;
19854;SDS011;10088;47.946;2.532;2023-05-27T03:04:41;20.73;;;14.60;;
19854;SDS011;10088;47.946;2.532;2023-05-27T03:07:06;22.80;;;15.87;;
19854;SDS011;10088;47.946;2.532;2023-05-27T03:09:32;26.93;;;14.80;;
19854;SDS011;10088;47.946;2.532;2023-05-27T03:11:57;25.27;;;14.47;;
19854;SDS011;10088;47.946;2.532;2023-05-27T03:14:22;27.83;;;14.77;;
19854;SDS011;10088;47.946;2.532;2023-05-27T03:16:48;27.70;;;14.63;;
19854;SDS011;10088;47.946;2.532;2023-05-27T03:19:13;23.73;;;15.40;;
19854;SDS011;10088;47.946;2.532;2023-05-27T03:21:38;24.93;;;15.63;;
19854;SDS011;10088;47.946;2.532;2023-05-27T03:24:03;27.63;;;15.80;;
19854;SDS011;10088;47.946;2.532;2023-05-27T03:26:29;31.20;;;15.97;;
19854;SDS011;10088;47.946;2.532;2023-05-27T03:28:54;28.77;;;15.60;;
19854;SDS011;10088;47.946;2.532;2023-05-27T03:31:19;27.27;;;14.83;;
19854;SDS011;10088;47.946;2.532;2023-05-27T03:33:45;27.60;;;15.77;;
19854;SDS011;10088;47.946;2.532;2023-05-27T03:36:10;23.43;;;15.23;;
19854;SDS011;10088;47.946;2.532;2023-05-27T03:38:35;25.10;;;14.87;;
19854;SDS011;10088;47.946;2.532;2023-05-27T03:41:00;28.10;;;16.17;;
19854;SDS011;10088;47.946;2.532;2023-05-27T03:43:25;30.20;;;14.70;;
19854;SDS011;10088;47.946;2.532;2023-05-27T03:45:51;29.17;;;14.87;;
19854;SDS011;10088;47.946;2.532;2023-05-27T03:48:16;22.77;;;15.30;;
19854;SDS011;10088;47.946;2.532;2023-05-27T03:50:42;27.00;;;15.10;;
19854;SDS011;10088;47.946;2.532;2023-05-27T03:53:07;25.17;;;15.20;;
19854;SDS011;10088;47.946;2.532;2023-05-27T03:55:32;23.43;;;14.83;;
19854;SDS011;10088;47.946;2.532;2023-05-27T03:57:58;26.90;;;14.27;;
19854;SDS011;10088;47.946;2.532;2023-05-27T04:00:23;33.17;;;15.63;;
19854;SDS011;10088;47.946;2.532;2023-05-27T04:02:49;25.50;;;15.87;;
19854;SDS011;10088;47.946;2.532;2023-05-27T04:05:14;27.50;;;14.60;;
19854;SDS011;10088;47.946;2.532;2023-05-27T04:07:41;22.80;;;14.47;;
19854;SDS011;10088;47.946;2.532;2023-05-27T04:10:07;26.70;;;14.47;;
19854;SDS011;10088;47.946;2.532;2023-05-27T04:12:32;22.73;;;14.03;;
19854;SDS011;10088;47.946;2.532;2023-05-27T04:14:58;23.77;;;14.87;;
19854;SDS011;10088;47.946;2.532;2023-05-27T04:17:23;32.30;;;14.80;;
19854;SDS011;10088;47.946;2.532;2023-05-27T04:19:48;24.67;;;14.10;;
19854;SDS011;10088;47.946;2.532;2023-05-27T04:22:14;26.67;;;14.13;;
19854;SDS011;10088;47.946;2.532;2023-05-27T04:24:39;25.23;;;13.37;;
19854;SDS011;10088;47.946;2.532;2023-05-27T04:27:06;26.13;;;13.67;;
19854;SDS011;10088;47.946;2.532;2023-05-27T04:29:32;25.57;;;14.13;;
19854;SDS011;10088;47.946;2.532;2023-05-27T04:31:57;26.10;;;14.07;;
19854;SDS011;10088;47.946;2.532;2023-05-27T04:34:23;33.27;;;13.90;;
19854;SDS011;10088;47.946;2.532;2023-05-27T04:36:48;29.67;;;13.80;;
19854;SDS011;10088;47.946;2.532;2023-05-27T04:39:17;24.57;;;14.00;;
19854;SDS011;10088;47.946;2.532;2023-05-27T04:41:43;26.63;;;13.97;;
19854;SDS011;10088;47.946;2.532;2023-05-27T04:44:10;24.33;;;13.87;;
19854;SDS011;10088;47.946;2.532;2023-05-27T04:46:36;24.23;;;13.90;;
19854;SDS011;10088;47.946;2.532;2023-05-27T04:49:04;25.43;;;14.03;;
19854;SDS011;10088;47.946;2.532;2023-05-27T04:51:29;31.87;;;15.07;;
19854;SDS011;10088;47.946;2.532;2023-05-27T04:53:54;26.93;;;13.13;;
19854;SDS011;10088;47.946;2.532;2023-05-27T04:56:21;21.80;;;13.17;;
19854;SDS011;10088;47.946;2.532;2023-05-27T04:58:46;26.03;;;13.20;;
19854;SDS011;10088;47.946;2.532;2023-05-27T05:01:13;19.63;;;12.03;;
19854;SDS011;10088;47.946;2.532;2023-05-27T05:03:43;26.67;;;13.53;;
19854;SDS011;10088;47.946;2.532;2023-05-27T05:06:17;24.47;;;12.77;;
19854;SDS011;10088;47.946;2.532;2023-05-27T05:08:42;29.23;;;13.07;;
19854;SDS011;10088;47.946;2.532;2023-05-27T05:11:07;20.87;;;13.10;;
19854;SDS011;10088;47.946;2.532;2023-05-27T05:13:33;22.33;;;11.10;;
19854;SDS011;10088;47.946;2.532;2023-05-27T05:15:58;25.30;;;12.33;;
19854;SDS011;10088;47.946;2.532;2023-05-27T05:18:23;18.67;;;11.57;;
19854;SDS011;10088;47.946;2.532;2023-05-27T05:20:48;24.83;;;13.40;;
19854;SDS011;10088;47.946;2.532;2023-05-27T05:23:14;22.23;;;11.53;;
19854;SDS011;10088;47.946;2.532;2023-05-27T05:25:40;25.70;;;12.30;;
19854;SDS011;10088;47.946;2.532;2023-05-27T05:28:06;22.10;;;11.50;;
19854;SDS011;10088;47.946;2.532;2023-05-27T05:30:31;21.40;;;10.83;;
19854;SDS011;10088;47.946;2.532;2023-05-27T05:32:57;23.47;;;11.40;;
19854;SDS011;10088;47.946;2.532;2023-05-27T05:35:22;19.97;;;10.83;;
19854;SDS011;10088;47.946;2.532;2023-05-27T05:37:47;25.20;;;11.13;;
19854;SDS011;10088;47.946;2.532;2023-05-27T05:40:14;19.77;;;10.63;;
19854;SDS011;10088;47.946;2.532;2023-05-27T05:42:39;25.77;;;11.83;;
19854;SDS011;10088;47.946;2.532;2023-05-27T05:45:04;21.10;;;10.10;;
19854;SDS011;10088;47.946;2.532;2023-05-27T05:47:30;17.43;;;9.40;;
19854;SDS011;10088;47.946;2.532;2023-05-27T05:49:55;20.27;;;9.30;;
19854;SDS011;10088;47.946;2.532;2023-05-27T05:52:20;15.73;;;8.60;;
19854;SDS011;10088;47.946;2.532;2023-05-27T05:54:46;18.53;;;8.60;;
19854;SDS011;10088;47.946;2.532;2023-05-27T05:57:11;15.87;;;8.10;;
19854;SDS011;10088;47.946;2.532;2023-05-27T05:59:36;19.53;;;8.80;;
19854;SDS011;10088;47.946;2.532;2023-05-27T06:02:01;20.27;;;8.60;;
19854;SDS011;10088;47.946;2.532;2023-05-27T06:04:27;14.27;;;7.73;;
19854;SDS011;10088;47.946;2.532;2023-05-27T06:06:52;13.63;;;7.03;;
19854;SDS011;10088;47.946;2.532;2023-05-27T06:09:17;15.63;;;7.73;;
19854;SDS011;10088;47.946;2.532;2023-05-27T06:11:43;14.10;;;6.93;;
19854;SDS011;10088;47.946;2.532;2023-05-27T06:14:08;16.23;;;6.87;;
19854;SDS011;10088;47.946;2.532;2023-05-27T06:16:33;16.13;;;7.13;;
19854;SDS011;10088;47.946;2.532;2023-05-27T06:19:01;16.13;;;6.97;;
19854;SDS011;10088;47.946;2.532;2023-05-27T06:21:26;17.03;;;7.07;;
19854;SDS011;10088;47.946;2.532;2023-05-27T06:23:51;14.07;;;6.90;;
19854;SDS011;10088;47.946;2.532;2023-05-27T06:26:17;15.37;;;6.73;;
19854;SDS011;10088;47.946;2.532;2023-05-27T06:28:42;14.53;;;6.50;;
19854;SDS011;10088;47.946;2.532;2023-05-27T06:31:07;13.93;;;6.40;;
19854;SDS011;10088;47.946;2.532;2023-05-27T06:33:32;15.10;;;5.97;;
19854;SDS011;10088;47.946;2.532;2023-05-27T06:35:58;15.83;;;6.73;;
19854;SDS011;10088;47.946;2.532;2023-05-27T06:38:23;17.53;;;6.90;;
19854;SDS011;10088;47.946;2.532;2023-05-27T06:40:49;13.17;;;5.83;;
19854;SDS011;10088;47.946;2.532;2023-05-27T06:43:14;16.17;;;5.70;;
19854;SDS011;10088;47.946;2.532;2023-05-27T06:45:39;15.37;;;6.10;;
19854;SDS011;10088;47.946;2.532;2023-05-27T06:48:05;13.57;;;5.63;;
19854;SDS011;10088;47.946;2.532;2023-05-27T06:50:32;15.33;;;6.40;;
19854;SDS011;10088;47.946;2.532;2023-05-27T06:52:57;12.40;;;5.37;;
19854;SDS011;10088;47.946;2.532;2023-05-27T06:55:23;15.70;;;5.77;;
19854;SDS011;10088;47.946;2.532;2023-05-27T06:57:48;13.70;;;5.73;;
19854;SDS011;10088;47.946;2.532;2023-05-27T07:00:13;15.50;;;5.50;;
19854;SDS011;10088;47.946;2.532;2023-05-27T07:02:39;18.83;;;6.13;;
19854;SDS011;10088;47.946;2.532;2023-05-27T07:05:04;13.00;;;5.23;;
19854;SDS011;10088;47.946;2.532;2023-05-27T07:07:30;11.83;;;5.07;;
19854;SDS011;10088;47.946;2.532;2023-05-27T07:09:55;12.97;;;4.80;;
19854;SDS011;10088;47.946;2.532;2023-05-27T07:12:21;13.00;;;5.03;;
19854;SDS011;10088;47.946;2.532;2023-05-27T07:14:46;14.67;;;5.30;;
19854;SDS011;10088;47.946;2.532;2023-05-27T07:17:12;13.37;;;5.47;;
19854;SDS011;10088;47.946;2.532;2023-05-27T07:19:37;14.23;;;5.03;;
19854;SDS011;10088;47.946;2.532;2023-05-27T07:22:02;13.10;;;5.37;;
19854;SDS011;10088;47.946;2.532;2023-05-27T07:24:27;14.33;;;4.90;;
19854;SDS011;10088;47.946;2.532;2023-05-27T07:26:53;11.83;;;5.07;;
19854;SDS011;10088;47.946;2.532;2023-05-27T07:29:18;12.67;;;5.00;;
19854;SDS011;10088;47.946;2.532;2023-05-27T07:31:45;14.67;;;5.30;;
19854;SDS011;10088;47.946;2.532;2023-05-27T07:34:10;14.40;;;5.07;;
19854;SDS011;10088;47.946;2.532;2023-05-27T07:36:35;13.90;;;4.70;;
19854;SDS011;10088;47.946;2.532;2023-05-27T07:39:01;13.53;;;5.00;;
19854;SDS011;10088;47.946;2.532;2023-05-27T07:41:26;12.60;;;4.70;;
19854;SDS011;10088;47.946;2.532;2023-05-27T07:43:54;10.67;;;3.93;;
19854;SDS011;10088;47.946;2.532;2023-05-27T07:46:19;11.57;;;4.90;;
19854;SDS011;10088;47.946;2.532;2023-05-27T07:48:45;12.40;;;4.30;;
19854;SDS011;10088;47.946;2.532;2023-05-27T07:51:10;11.73;;;4.53;;
19854;SDS011;10088;47.946;2.532;2023-05-27T07:53:36;17.70;;;4.77;;
19854;SDS011;10088;47.946;2.532;2023-05-27T07:56:01;10.47;;;4.73;;
19854;SDS011;10088;47.946;2.532;2023-05-27T07:58:26;10.73;;;4.40;;
19854;SDS011;10088;47.946;2.532;2023-05-27T08:00:52;11.90;;;4.87;;
19854;SDS011;10088;47.946;2.532;2023-05-27T08:03:17;11.57;;;4.67;;
19854;SDS011;10088;47.946;2.532;2023-05-27T08:05:42;12.90;;;4.50;;
19854;SDS011;10088;47.946;2.532;2023-05-27T08:08:07;11.37;;;4.20;;
19854;SDS011;10088;47.946;2.532;2023-05-27T08:10:33;11.67;;;4.50;;
19854;SDS011;10088;47.946;2.532;2023-05-27T08:12:58;10.50;;;3.73;;
19854;SDS011;10088;47.946;2.532;2023-05-27T08:15:23;11.23;;;4.40;;
19854;SDS011;10088;47.946;2.532;2023-05-27T08:17:49;13.60;;;4.63;;
19854;SDS011;10088;47.946;2.532;2023-05-27T08:20:14;10.00;;;4.27;;
19854;SDS011;10088;47.946;2.532;2023-05-27T08:22:40;9.77;;;4.40;;
19854;SDS011;10088;47.946;2.532;2023-05-27T08:25:06;13.07;;;4.33;;
19854;SDS011;10088;47.946;2.532;2023-05-27T08:30:12;10.53;;;4.70;;
19854;SDS011;10088;47.946;2.532;2023-05-27T08:32:38;11.13;;;4.67;;
19854;SDS011;10088;47.946;2.532;2023-05-27T08:35:03;12.57;;;4.43;;
19854;SDS011;10088;47.946;2.532;2023-05-27T08:37:29;13.83;;;5.00;;
19854;SDS011;10088;47.946;2.532;2023-05-27T08:39:54;10.97;;;4.60;;
19854;SDS011;10088;47.946;2.532;2023-05-27T08:42:20;15.67;;;4.17;;
19854;SDS011;10088;47.946;2.532;2023-05-27T08:44:45;14.17;;;4.80;;
19854;SDS011;10088;47.946;2.532;2023-05-27T08:47:11;11.13;;;4.43;;
19854;SDS011;10088;47.946;2.532;2023-05-27T08:49:36;10.77;;;4.17;;
19854;SDS011;10088;47.946;2.532;2023-05-27T08:52:02;12.60;;;4.73;;
19854;SDS011;10088;47.946;2.532;2023-05-27T08:54:28;13.33;;;4.33;;
19854;SDS011;10088;47.946;2.532;2023-05-27T08:56:55;10.13;;;4.00;;
19854;SDS011;10088;47.946;2.532;2023-05-27T08:59:21;13.33;;;4.10;;
19854;SDS011;10088;47.946;2.532;2023-05-27T09:01:47;12.53;;;4.50;;
19854;SDS011;10088;47.946;2.532;2023-05-27T09:04:13;12.60;;;4.70;;
19854;SDS011;10088;47.946;2.532;2023-05-27T09:06:38;11.67;;;4.20;;
19854;SDS011;10088;47.946;2.532;2023-05-27T09:09:06;11.30;;;4.23;;
19854;SDS011;10088;47.946;2.532;2023-05-27T09:11:31;12.67;;;4.43;;
19854;SDS011;10088;47.946;2.532;2023-05-27T09:14:00;11.83;;;4.30;;
19854;SDS011;10088;47.946;2.532;2023-05-27T09:16:25;9.23;;;3.53;;
19854;SDS011;10088;47.946;2.532;2023-05-27T09:18:51;12.37;;;4.70;;
19854;SDS011;10088;47.946;2.532;2023-05-27T09:21:16;10.63;;;4.03;;
19854;SDS011;10088;47.946;2.532;2023-05-27T09:23:42;9.07;;;4.20;;
19854;SDS011;10088;47.946;2.532;2023-05-27T09:26:11;9.07;;;4.07;;
19854;SDS011;10088;47.946;2.532;2023-05-27T09:28:36;15.67;;;4.30;;
19854;SDS011;10088;47.946;2.532;2023-05-27T09:31:03;9.73;;;4.20;;
19854;SDS011;10088;47.946;2.532;2023-05-27T09:33:39;8.50;;;4.33;;
19854;SDS011;10088;47.946;2.532;2023-05-27T09:36:04;12.20;;;4.37;;
19854;SDS011;10088;47.946;2.532;2023-05-27T09:38:30;9.30;;;3.93;;
19854;SDS011;10088;47.946;2.532;2023-05-27T09:40:56;11.13;;;4.20;;
19854;SDS011;10088;47.946;2.532;2023-05-27T09:43:23;8.97;;;3.97;;
19854;SDS011;10088;47.946;2.532;2023-05-27T09:45:49;10.43;;;4.20;;
19854;SDS011;10088;47.946;2.532;2023-05-27T09:48:14;10.47;;;4.30;;
19854;SDS011;10088;47.946;2.532;2023-05-27T09:50:42;12.90;;;4.47;;
19854;SDS011;10088;47.946;2.532;2023-05-27T09:53:08;11.53;;;4.23;;
19854;SDS011;10088;47.946;2.532;2023-05-27T09:55:34;11.10;;;4.07;;
19854;SDS011;10088;47.946;2.532;2023-05-27T09:57:59;8.63;;;4.00;;
19854;SDS011;10088;47.946;2.532;2023-05-27T10:00:25;9.87;;;4.23;;
19854;SDS011;10088;47.946;2.532;2023-05-27T10:02:52;10.13;;;3.50;;
19854;SDS011;10088;47.946;2.532;2023-05-27T10:05:18;9.50;;;3.80;;
19854;SDS011;10088;47.946;2.532;2023-05-27T10:07:45;10.40;;;4.40;;
19854;SDS011;10088;47.946;2.532;2023-05-27T10:10:12;11.37;;;4.27;;
19854;SDS011;10088;47.946;2.532;2023-05-27T10:12:38;10.10;;;4.00;;
19854;SDS011;10088;47.946;2.532;2023-05-27T10:15:04;10.20;;;3.77;;
19854;SDS011;10088;47.946;2.532;2023-05-27T10:17:42;8.60;;;3.77;;
19854;SDS011;10088;47.946;2.532;2023-05-27T10:20:11;7.77;;;3.90;;
19854;SDS011;10088;47.946;2.532;2023-05-27T10:22:43;9.47;;;3.97;;
19854;SDS011;10088;47.946;2.532;2023-05-27T10:25:12;8.43;;;3.50;;
19854;SDS011;10088;47.946;2.532;2023-05-27T10:27:44;8.33;;;3.87;;
19854;SDS011;10088;47.946;2.532;2023-05-27T10:30:10;9.07;;;3.70;;
19854;SDS011;10088;47.946;2.532;2023-05-27T10:33:09;10.17;;;3.50;;
19854;SDS011;10088;47.946;2.532;2023-05-27T10:35:27;10.23;;;3.83;;
19854;SDS011;10088;47.946;2.532;2023-05-27T10:38:03;10.53;;;3.50;;
19854;SDS011;10088;47.946;2.532;2023-05-27T10:40:38;11.37;;;4.40;;
19854;SDS011;10088;47.946;2.532;2023-05-27T10:43:04;10.27;;;3.77;;
19854;SDS011;10088;47.946;2.532;2023-05-27T10:45:33;11.10;;;4.37;;
19854;SDS011;10088;47.946;2.532;2023-05-27T10:47:58;8.23;;;3.80;;
19854;SDS011;10088;47.946;2.532;2023-05-27T10:50:28;7.77;;;4.40;;
19854;SDS011;10088;47.946;2.532;2023-05-27T10:52:55;8.33;;;3.93;;
19854;SDS011;10088;47.946;2.532;2023-05-27T10:55:21;10.47;;;4.50;;
19854;SDS011;10088;47.946;2.532;2023-05-27T10:57:47;12.73;;;4.07;;
19854;SDS011;10088;47.946;2.532;2023-05-27T11:00:12;8.63;;;4.30;;
19854;SDS011;10088;47.946;2.532;2023-05-27T11:02:40;13.77;;;4.27;;
19854;SDS011;10088;47.946;2.532;2023-05-27T11:05:13;9.03;;;3.63;;
19854;SDS011;10088;47.946;2.532;2023-05-27T11:07:39;7.10;;;3.80;;
19854;SDS011;10088;47.946;2.532;2023-05-27T11:10:05;9.60;;;3.60;;
19854;SDS011;10088;47.946;2.532;2023-05-27T11:12:31;10.10;;;3.90;;
19854;SDS011;10088;47.946;2.532;2023-05-27T11:14:57;8.23;;;3.83;;
19854;SDS011;10088;47.946;2.532;2023-05-27T11:17:22;13.73;;;4.03;;
19854;SDS011;10088;47.946;2.532;2023-05-27T11:19:48;7.53;;;4.10;;
19854;SDS011;10088;47.946;2.532;2023-05-27T11:22:14;8.30;;;4.00;;
19854;SDS011;10088;47.946;2.532;2023-05-27T11:24:41;9.37;;;3.77;;
19854;SDS011;10088;47.946;2.532;2023-05-27T11:27:10;9.13;;;3.70;;
19854;SDS011;10088;47.946;2.532;2023-05-27T11:29:38;7.70;;;4.10;;
19854;SDS011;10088;47.946;2.532;2023-05-27T11:32:04;9.00;;;3.77;;
19854;SDS011;10088;47.946;2.532;2023-05-27T11:34:36;9.07;;;4.00;;
19854;SDS011;10088;47.946;2.532;2023-05-27T11:37:02;6.63;;;3.20;;
19854;SDS011;10088;47.946;2.532;2023-05-27T11:39:31;8.10;;;4.10;;
19854;SDS011;10088;47.946;2.532;2023-05-27T11:41:56;8.97;;;3.70;;
19854;SDS011;10088;47.946;2.532;2023-05-27T11:44:22;7.60;;;3.70;;
19854;SDS011;10088;47.946;2.532;2023-05-27T11:46:48;8.33;;;4.47;;
19854;SDS011;10088;47.946;2.532;2023-05-27T11:49:14;9.27;;;3.40;;
19854;SDS011;10088;47.946;2.532;2023-05-27T11:51:41;6.97;;;3.40;;
19854;SDS011;10088;47.946;2.532;2023-05-27T11:54:06;7.17;;;3.70;;
19854;SDS011;10088;47.946;2.532;2023-05-27T11:56:32;8.27;;;4.03;;
19854;SDS011;10088;47.946;2.532;2023-05-27T11:58:57;10.90;;;4.03;;
19854;SDS011;10088;47.946;2.532;2023-05-27T12:01:23;10.63;;;4.03;;
19854;SDS011;10088;47.946;2.532;2023-05-27T12:03:48;8.67;;;3.67;;
19854;SDS011;10088;47.946;2.532;2023-05-27T12:06:14;8.27;;;4.00;;
19854;SDS011;10088;47.946;2.532;2023-05-27T12:08:40;8.57;;;4.10;;
19854;SDS011;10088;47.946;2.532;2023-05-27T12:11:05;7.17;;;3.47;;
19854;SDS011;10088;47.946;2.532;2023-05-27T12:13:31;8.53;;;4.10;;
19854;SDS011;10088;47.946;2.532;2023-05-27T12:15:57;8.53;;;4.10;;
19854;SDS011;10088;47.946;2.532;2023-05-27T12:18:22;8.63;;;3.80;;
19854;SDS011;10088;47.946;2.532;2023-05-27T12:20:48;9.27;;;3.77;;
19854;SDS011;10088;47.946;2.532;2023-05-27T12:23:13;6.13;;;3.70;;
19854;SDS011;10088;47.946;2.532;2023-05-27T12:25:39;7.93;;;3.60;;
19854;SDS011;10088;47.946;2.532;2023-05-27T12:28:06;9.07;;;4.03;;
19854;SDS011;10088;47.946;2.532;2023-05-27T12:30:31;10.07;;;4.27;;
19854;SDS011;10088;47.946;2.532;2023-05-27T12:32:56;7.60;;;3.43;;
19854;SDS011;10088;47.946;2.532;2023-05-27T12:35:24;8.13;;;3.87;;
19854;SDS011;10088;47.946;2.532;2023-05-27T12:37:49;8.33;;;3.90;;
19854;SDS011;10088;47.946;2.532;2023-05-27T12:40:14;6.60;;;3.60;;
19854;SDS011;10088;47.946;2.532;2023-05-27T12:42:40;6.00;;;3.53;;
19854;SDS011;10088;47.946;2.532;2023-05-27T12:45:05;9.23;;;3.90;;
19854;SDS011;10088;47.946;2.532;2023-05-27T12:47:32;7.40;;;3.87;;
19854;SDS011;10088;47.946;2.532;2023-05-27T12:49:57;7.93;;;3.70;;
19854;SDS011;10088;47.946;2.532;2023-05-27T12:52:22;7.63;;;3.93;;
19854;SDS011;10088;47.946;2.532;2023-05-27T12:54:47;8.13;;;4.07;;
19854;SDS011;10088;47.946;2.532;2023-05-27T12:57:13;11.90;;;4.27;;
19854;SDS011;10088;47.946;2.532;2023-05-27T12:59:38;8.20;;;4.00;;
19854;SDS011;10088;47.946;2.532;2023-05-27T13:02:04;10.80;;;4.10;;
19854;SDS011;10088;47.946;2.532;2023-05-27T13:04:30;7.57;;;3.87;;
19854;SDS011;10088;47.946;2.532;2023-05-27T13:06:55;8.80;;;3.63;;
19854;SDS011;10088;47.946;2.532;2023-05-27T13:09:21;6.10;;;3.37;;
19854;SDS011;10088;47.946;2.532;2023-05-27T13:11:46;8.57;;;4.00;;
19854;SDS011;10088;47.946;2.532;2023-05-27T13:14:12;7.60;;;3.53;;
19854;SDS011;10088;47.946;2.532;2023-05-27T13:16:37;6.47;;;3.73;;
19854;SDS011;10088;47.946;2.532;2023-05-27T13:19:02;7.23;;;4.00;;
19854;SDS011;10088;47.946;2.532;2023-05-27T13:21:28;9.17;;;3.90;;
19854;SDS011;10088;47.946;2.532;2023-05-27T13:23:53;7.93;;;3.53;;
19854;SDS011;10088;47.946;2.532;2023-05-27T13:26:18;8.07;;;4.37;;
19854;SDS011;10088;47.946;2.532;2023-05-27T13:28:44;10.23;;;4.30;;
19854;SDS011;10088;47.946;2.532;2023-05-27T13:31:09;6.93;;;3.87;;
19854;SDS011;10088;47.946;2.532;2023-05-27T13:33:34;8.47;;;4.00;;
19854;SDS011;10088;47.946;2.532;2023-05-27T13:36:00;7.33;;;4.07;;
19854;SDS011;10088;47.946;2.532;2023-05-27T13:38:25;9.47;;;4.50;;
19854;SDS011;10088;47.946;2.532;2023-05-27T13:40:50;7.27;;;3.70;;
19854;SDS011;10088;47.946;2.532;2023-05-27T13:43:16;6.53;;;3.83;;
19854;SDS011;10088;47.946;2.532;2023-05-27T13:45:41;6.37;;;3.53;;
19854;SDS011;10088;47.946;2.532;2023-05-27T13:48:06;8.60;;;4.50;;
19854;SDS011;10088;47.946;2.532;2023-05-27T13:50:32;9.03;;;4.13;;
19854;SDS011;10088;47.946;2.532;2023-05-27T13:52:57;6.73;;;3.70;;
19854;SDS011;10088;47.946;2.532;2023-05-27T13:55:23;7.07;;;4.10;;
19854;SDS011;10088;47.946;2.532;2023-05-27T13:57:48;7.53;;;3.73;;
19854;SDS011;10088;47.946;2.532;2023-05-27T14:00:13;8.40;;;3.93;;
19854;SDS011;10088;47.946;2.532;2023-05-27T14:02:40;7.77;;;3.87;;
19854;SDS011;10088;47.946;2.532;2023-05-27T14:05:06;6.33;;;3.77;;
19854;SDS011;10088;47.946;2.532;2023-05-27T14:07:31;8.82;;;3.80;;
19854;SDS011;10088;47.946;2.532;2023-05-27T14:09:57;6.97;;;4.20;;
19854;SDS011;10088;47.946;2.532;2023-05-27T14:12:22;8.70;;;4.20;;
19854;SDS011;10088;47.946;2.532;2023-05-27T14:14:47;8.68;;;4.43;;
19854;SDS011;10088;47.946;2.532;2023-05-27T14:17:13;11.30;;;3.95;;
19854;SDS011;10088;47.946;2.532;2023-05-27T14:19:38;6.68;;;4.18;;
19854;SDS011;10088;47.946;2.532;2023-05-27T14:22:03;8.02;;;3.83;;
19854;SDS011;10088;47.946;2.532;2023-05-27T14:24:29;9.15;;;4.13;;
19854;SDS011;10088;47.946;2.532;2023-05-27T14:26:56;5.93;;;4.10;;
19854;SDS011;10088;47.946;2.532;2023-05-27T14:29:21;6.85;;;4.22;;
19854;SDS011;10088;47.946;2.532;2023-05-27T14:31:46;6.80;;;3.80;;
19854;SDS011;10088;47.946;2.532;2023-05-27T14:34:12;6.82;;;4.07;;